createdAt,value
2022-10-11T00:01:53.554Z,3.23
2022-10-11T00:03:56.387Z,3.00
2022-10-11T00:05:59.256Z,3.47
2022-10-11T00:08:05.493Z,3.43
2022-10-11T00:10:10.093Z,3.33
2022-10-11T00:12:13.166Z,3.80
2022-10-11T00:14:16.114Z,3.77
2022-10-11T00:16:19.042Z,3.00
2022-10-11T00:18:22.023Z,3.47
2022-10-11T00:20:26.475Z,3.00
2022-10-11T00:22:29.383Z,2.83
2022-10-11T00:24:33.693Z,3.07
2022-10-11T00:26:36.562Z,2.73
2022-10-11T00:28:39.968Z,3.10
2022-10-11T00:30:44.214Z,3.00
2022-10-11T00:32:47.013Z,3.43
2022-10-11T00:34:49.894Z,3.60
2022-10-11T00:36:52.802Z,3.43
2022-10-11T00:38:55.672Z,2.93
2022-10-11T00:41:00.363Z,3.57
2022-10-11T00:43:03.343Z,3.50
2022-10-11T00:45:43.535Z,3.47
2022-10-11T00:47:46.416Z,2.97
2022-10-11T00:49:55.037Z,3.10
2022-10-11T00:52:02.197Z,2.73
2022-10-11T00:54:07.065Z,2.67
2022-10-11T00:56:24.727Z,3.00
2022-10-11T00:58:27.773Z,2.93
2022-10-11T01:00:30.628Z,3.57
2022-10-11T01:02:33.448Z,2.57
2022-10-11T01:04:36.532Z,2.70
2022-10-11T01:06:39.662Z,2.63
2022-10-11T01:08:42.773Z,2.43
2022-10-11T01:10:45.933Z,2.97
2022-10-11T01:13:02.180Z,2.67
2022-10-11T01:15:15.936Z,2.80
2022-10-11T01:17:26.669Z,2.93
2022-10-11T01:19:48.572Z,2.50
2022-10-11T01:21:58.626Z,3.03
2022-10-11T01:24:31.112Z,2.40
2022-10-11T01:27:19.036Z,2.80
2022-10-11T01:29:32.464Z,2.30
2022-10-11T01:31:41.161Z,2.83
2022-10-11T01:33:50.954Z,2.50
2022-10-11T01:36:02.255Z,2.27
2022-10-11T01:38:13.444Z,2.50
2022-10-11T01:40:23.427Z,2.33
2022-10-11T01:42:29.040Z,2.50
2022-10-11T01:44:32.962Z,3.23
2022-10-11T01:46:37.974Z,3.07
2022-10-11T01:48:51.985Z,2.30
2022-10-11T01:50:56.871Z,2.40
2022-10-11T01:53:11.168Z,3.07
2022-10-11T01:55:24.497Z,2.30
2022-10-11T01:57:48.802Z,2.20
2022-10-11T02:00:00.370Z,2.67
2022-10-11T02:02:16.366Z,2.33
2022-10-11T02:04:28.400Z,2.53
2022-10-11T02:06:36.641Z,2.40
2022-10-11T02:08:49.889Z,2.00
2022-10-11T02:11:01.577Z,2.00
2022-10-11T02:13:09.537Z,2.30
2022-10-11T02:15:15.409Z,2.27
2022-10-11T02:17:22.955Z,2.00
2022-10-11T02:19:30.674Z,2.70
2022-10-11T02:21:36.508Z,2.40
2022-10-11T02:23:44.973Z,2.40
2022-10-11T02:25:50.928Z,2.00
2022-10-11T02:27:57.396Z,2.30
2022-10-11T02:30:02.618Z,2.17
2022-10-11T02:32:07.207Z,2.13
2022-10-11T02:34:16.189Z,2.27
2022-10-11T02:36:25.854Z,2.10
2022-10-11T02:38:34.586Z,2.43
2022-10-11T02:40:41.425Z,2.00
2022-10-11T02:42:47.870Z,2.10
2022-10-11T02:45:00.634Z,2.03
2022-10-11T02:47:04.899Z,2.07
2022-10-11T02:49:09.511Z,2.73
2022-10-11T02:51:15.813Z,2.20
2022-10-11T02:53:18.779Z,2.00
2022-10-11T02:55:21.943Z,2.60
2022-10-11T02:57:24.852Z,2.40
2022-10-11T02:59:27.665Z,2.43
2022-10-11T03:01:30.532Z,1.80
2022-10-11T03:03:33.402Z,2.30
2022-10-11T03:05:40.526Z,2.30
2022-10-11T03:07:44.794Z,2.60
2022-10-11T03:09:47.769Z,2.03
2022-10-11T03:11:50.601Z,2.53
2022-10-11T03:13:53.552Z,2.70
2022-10-11T03:16:03.135Z,2.43
2022-10-11T03:18:06.471Z,3.03
2022-10-11T03:20:10.184Z,2.50
2022-10-11T03:22:13.057Z,2.70
2022-10-11T03:24:17.276Z,2.70
2022-10-11T03:26:20.082Z,2.67
2022-10-11T03:28:23.237Z,3.10
2022-10-11T03:30:26.169Z,2.80
2022-10-11T03:32:29.539Z,2.97
2022-10-11T03:34:32.374Z,2.40
2022-10-11T03:36:35.208Z,3.00
2022-10-11T03:38:38.021Z,2.30
2022-10-11T03:40:42.745Z,2.73
2022-10-11T03:42:45.585Z,2.83
2022-10-11T03:44:49.509Z,3.00
2022-10-11T03:46:52.589Z,2.93
2022-10-11T03:48:55.487Z,2.70
2022-10-11T03:50:58.322Z,3.60
2022-10-11T03:53:01.359Z,3.40
2022-10-11T03:55:04.539Z,3.27
2022-10-11T03:57:08.810Z,3.20
2022-10-11T03:59:11.667Z,3.47
2022-10-11T04:01:14.752Z,3.73
2022-10-11T04:03:17.884Z,3.63
2022-10-11T04:05:20.745Z,3.73
2022-10-11T04:07:23.636Z,3.87
2022-10-11T04:09:26.522Z,3.97
2022-10-11T04:11:29.639Z,4.00
2022-10-11T04:13:33.874Z,4.57
2022-10-11T04:15:38.103Z,4.10
2022-10-11T04:17:41.246Z,4.03
2022-10-11T04:19:47.344Z,2.93
2022-10-11T04:21:50.195Z,3.90
2022-10-11T04:23:52.995Z,3.90
2022-10-11T04:25:55.812Z,3.40
2022-10-11T04:27:58.672Z,3.67
2022-10-11T04:30:02.922Z,3.63
2022-10-11T04:32:05.892Z,3.83
2022-10-11T04:34:08.756Z,3.90
2022-10-11T04:36:11.530Z,4.00
2022-10-11T04:38:14.413Z,4.60
2022-10-11T04:40:19.578Z,4.30
2022-10-11T04:42:22.512Z,4.20
2022-10-11T04:44:25.360Z,4.30
2022-10-11T04:46:29.753Z,3.93
2022-10-11T04:48:35.576Z,4.03
2022-10-11T04:50:38.542Z,3.93
2022-10-11T04:52:41.395Z,4.47
2022-10-11T04:54:44.302Z,4.60
2022-10-11T04:56:47.179Z,4.10
2022-10-11T04:58:54.026Z,4.17
2022-10-11T05:00:57.305Z,4.60
2022-10-11T05:03:01.754Z,4.37
2022-10-11T05:05:05.205Z,4.70
2022-10-11T05:07:08.139Z,4.87
2022-10-11T05:09:10.974Z,4.33
2022-10-11T05:11:16.329Z,3.53
2022-10-11T05:13:19.220Z,4.13
2022-10-11T05:15:22.066Z,4.00
2022-10-11T05:17:24.922Z,3.97
2022-10-11T05:19:29.236Z,3.97
2022-10-11T05:21:32.379Z,4.07
2022-10-11T05:23:37.094Z,4.20
2022-10-11T05:25:40.119Z,3.97
2022-10-11T05:27:42.979Z,3.80
2022-10-11T05:29:45.836Z,4.17
2022-10-11T05:31:48.663Z,4.07
2022-10-11T05:33:51.522Z,4.03
2022-10-11T05:35:55.761Z,3.87
2022-10-11T05:37:58.677Z,4.33
2022-10-11T05:40:01.707Z,4.60
2022-10-11T05:42:09.623Z,4.10
2022-10-11T05:44:12.868Z,4.57
2022-10-11T05:46:15.922Z,4.10
2022-10-11T05:48:18.775Z,5.13
2022-10-11T05:50:24.276Z,5.07
2022-10-11T05:52:28.814Z,5.10
2022-10-11T05:54:32.327Z,4.70
2022-10-11T05:56:35.464Z,5.00
2022-10-11T05:58:41.173Z,4.83
2022-10-11T06:00:44.000Z,4.70
2022-10-11T06:02:46.856Z,4.80
2022-10-11T06:04:49.654Z,5.07
2022-10-11T06:06:52.508Z,5.30
2022-10-11T06:08:56.700Z,4.73
2022-10-11T06:10:59.548Z,5.97
2022-10-11T06:13:02.747Z,5.67
2022-10-11T06:15:07.539Z,5.90
2022-10-11T06:17:10.422Z,5.23
2022-10-11T06:19:13.265Z,5.57
2022-10-11T06:21:16.300Z,5.60
2022-10-11T06:23:19.147Z,6.23
2022-10-11T06:25:23.314Z,6.30
2022-10-11T06:27:26.563Z,6.73
2022-10-11T06:29:29.449Z,6.43
2022-10-11T06:31:32.487Z,6.07
2022-10-11T06:33:35.672Z,5.87
2022-10-11T06:35:38.665Z,6.50
2022-10-11T06:37:41.773Z,6.93
2022-10-11T06:39:44.784Z,7.30
2022-10-11T06:41:49.120Z,6.70
2022-10-11T06:43:52.476Z,5.97
2022-10-11T06:46:00.404Z,6.63
2022-10-11T06:48:05.591Z,6.73
2022-10-11T06:50:09.216Z,5.83
2022-10-11T06:52:12.042Z,6.00
2022-10-11T06:54:14.889Z,6.40
2022-10-11T06:56:17.773Z,6.20
2022-10-11T06:58:22.054Z,5.20
2022-10-11T07:00:24.856Z,5.47
2022-10-11T07:02:27.705Z,5.70
2022-10-11T07:04:30.657Z,5.10
2022-10-11T07:06:38.437Z,4.47
2022-10-11T07:08:41.389Z,4.47
2022-10-11T07:10:44.313Z,4.87
2022-10-11T07:12:47.145Z,5.80
2022-10-11T07:14:51.354Z,5.37
2022-10-11T07:16:54.230Z,4.70
2022-10-11T07:19:01.399Z,4.87
2022-10-11T07:21:06.568Z,5.20
2022-10-11T07:23:09.374Z,4.90
2022-10-11T07:25:12.397Z,4.23
2022-10-11T07:27:15.393Z,4.23
2022-10-11T07:29:18.548Z,4.20
2022-10-11T07:31:25.084Z,5.40
2022-10-11T07:33:27.925Z,4.43
2022-10-11T07:35:30.793Z,4.67
2022-10-11T07:37:34.851Z,5.20
2022-10-11T07:39:37.995Z,4.97
2022-10-11T07:41:45.626Z,4.67
2022-10-11T07:43:50.879Z,3.77
2022-10-11T07:45:55.564Z,4.57
2022-10-11T07:47:59.841Z,4.53
2022-10-11T07:50:02.869Z,4.30
2022-10-11T07:52:06.002Z,3.90
2022-10-11T07:54:09.061Z,4.10
2022-10-11T07:56:13.728Z,21.90
2022-10-11T07:58:16.599Z,5.87
2022-10-11T08:00:19.807Z,4.73
2022-10-11T08:02:22.713Z,8.73
2022-10-11T08:04:27.197Z,9.47
2022-10-11T08:06:32.654Z,4.80
2022-10-11T08:08:35.868Z,14.87
2022-10-11T08:10:40.021Z,5.90
2022-10-11T08:12:42.982Z,4.33
2022-10-11T08:14:45.794Z,6.63
2022-10-11T08:16:49.217Z,4.10
2022-10-11T08:18:52.070Z,4.10
2022-10-11T08:20:56.314Z,4.20
2022-10-11T08:22:59.094Z,3.70
2022-10-11T08:25:01.944Z,4.73
2022-10-11T08:27:04.911Z,3.70
2022-10-11T08:29:07.895Z,3.67
2022-10-11T08:31:13.859Z,3.33
2022-10-11T08:33:17.292Z,3.53
2022-10-11T08:35:20.158Z,4.03
2022-10-11T08:37:24.372Z,3.90
2022-10-11T08:39:27.264Z,4.10
2022-10-11T08:41:34.716Z,4.10
2022-10-11T08:43:45.630Z,3.70
2022-10-11T08:45:52.020Z,4.47
2022-10-11T08:48:04.999Z,4.43
2022-10-11T08:50:16.582Z,4.97
2022-10-11T08:52:25.449Z,4.17
2022-10-11T08:54:35.711Z,4.20
2022-10-11T08:56:39.962Z,4.53
2022-10-11T08:58:47.901Z,4.23
2022-10-11T09:00:55.119Z,4.53
2022-10-11T09:03:09.230Z,4.33
2022-10-11T09:05:16.292Z,3.97
2022-10-11T09:07:33.384Z,4.13
2022-10-11T09:10:00.717Z,5.10
2022-10-11T09:12:13.671Z,4.40
2022-10-11T09:14:40.295Z,3.97
2022-10-11T09:16:56.598Z,4.20
2022-10-11T09:19:30.585Z,3.97
2022-10-11T09:21:42.005Z,4.07
2022-10-11T09:24:07.823Z,4.27
2022-10-11T09:26:14.704Z,3.67
2022-10-11T09:28:28.742Z,4.30
2022-10-11T09:30:32.063Z,4.57
2022-10-11T09:32:39.256Z,4.13
2022-10-11T09:34:42.128Z,4.17
2022-10-11T09:36:54.274Z,5.40
2022-10-11T09:39:08.413Z,4.47
2022-10-11T09:41:17.968Z,4.20
2022-10-11T09:43:20.980Z,4.50
2022-10-11T09:45:23.964Z,4.63
2022-10-11T09:47:29.424Z,4.03
2022-10-11T09:49:39.254Z,3.27
2022-10-11T09:51:45.661Z,3.80
2022-10-11T09:54:01.760Z,4.10
2022-10-11T09:56:06.160Z,3.83
2022-10-11T09:58:28.875Z,3.37
2022-10-11T10:00:33.717Z,4.00
2022-10-11T10:02:41.731Z,4.23
2022-10-11T10:05:14.620Z,3.60
2022-10-11T10:07:17.642Z,3.50
2022-10-11T10:09:27.260Z,4.07
2022-10-11T10:11:37.665Z,3.50
2022-10-11T10:13:46.133Z,3.47
2022-10-11T10:15:51.840Z,3.70
2022-10-11T10:17:54.881Z,3.33
2022-10-11T10:20:00.380Z,3.30
2022-10-11T10:22:03.259Z,3.53
2022-10-11T10:24:09.711Z,3.20
2022-10-11T10:26:17.439Z,3.77
2022-10-11T10:28:23.866Z,3.03
2022-10-11T10:30:29.768Z,3.93
2022-10-11T10:32:43.786Z,4.37
2022-10-11T10:34:57.848Z,5.40
2022-10-11T10:37:07.434Z,3.33
2022-10-11T10:39:22.836Z,4.30
2022-10-11T10:41:29.106Z,3.33
2022-10-11T10:43:35.504Z,3.23
2022-10-11T10:45:45.300Z,3.37
2022-10-11T10:48:05.016Z,3.10
2022-10-11T10:50:17.070Z,9.23
2022-10-11T10:52:46.231Z,3.47
2022-10-11T10:54:53.648Z,3.40
2022-10-11T10:57:01.770Z,3.27
2022-10-11T10:59:20.500Z,2.97
2022-10-11T11:01:27.569Z,2.80
2022-10-11T11:03:36.826Z,3.37
2022-10-11T11:05:48.805Z,3.00
2022-10-11T11:07:58.585Z,3.17
2022-10-11T11:10:05.730Z,3.90
2022-10-11T11:12:22.769Z,3.20
2022-10-11T11:14:37.214Z,3.90
2022-10-11T11:16:46.067Z,3.33
2022-10-11T11:18:57.589Z,4.30
2022-10-11T11:21:16.251Z,2.97
2022-10-11T11:23:29.050Z,3.10
2022-10-11T11:25:44.882Z,2.93
2022-10-11T11:28:11.466Z,2.97
2022-10-11T11:30:20.917Z,2.97
2022-10-11T11:32:33.763Z,3.43
2022-10-11T11:34:42.167Z,2.70
2022-10-11T11:36:47.982Z,2.40
2022-10-11T11:38:56.653Z,4.20
2022-10-11T11:41:02.757Z,3.23
2022-10-11T11:43:13.496Z,7.33
2022-10-11T11:45:22.207Z,3.03
2022-10-11T11:47:31.267Z,2.90
2022-10-11T11:49:37.907Z,2.73
2022-10-11T11:51:45.300Z,9.07
2022-10-11T11:53:54.484Z,3.47
2022-10-11T11:56:01.404Z,3.17
2022-10-11T11:58:18.616Z,2.57
2022-10-11T12:00:24.264Z,3.00
2022-10-11T12:02:38.863Z,2.53
2022-10-11T12:04:44.640Z,2.33
2022-10-11T12:07:15.484Z,2.67
2022-10-11T12:09:23.002Z,2.53
2022-10-11T12:11:34.520Z,2.40
2022-10-11T12:13:42.416Z,2.30
2022-10-11T12:15:59.931Z,2.37
2022-10-11T12:18:06.919Z,3.60
2022-10-11T12:20:17.378Z,2.47
2022-10-11T12:22:39.119Z,2.17
2022-10-11T12:24:55.219Z,2.40
2022-10-11T12:26:59.599Z,2.13
2022-10-11T12:29:44.241Z,2.13
2022-10-11T12:31:48.717Z,4.70
2022-10-11T12:34:21.676Z,2.30
2022-10-11T12:36:36.278Z,2.47
2022-10-11T12:38:41.875Z,2.43
2022-10-11T12:40:47.205Z,2.60
2022-10-11T12:43:12.822Z,2.83
2022-10-11T12:45:34.576Z,2.30
2022-10-11T12:47:46.198Z,2.37
2022-10-11T12:50:02.518Z,2.20
2022-10-11T12:52:22.113Z,2.40
2022-10-11T12:54:49.020Z,2.37
2022-10-11T12:57:11.038Z,2.07
2022-10-11T12:59:18.983Z,2.27
2022-10-11T13:01:35.022Z,2.40
2022-10-11T13:03:41.877Z,2.07
2022-10-11T13:05:49.743Z,2.33
2022-10-11T13:07:58.628Z,2.13
2022-10-11T13:10:01.608Z,2.03
2022-10-11T13:12:07.386Z,1.87
2022-10-11T13:14:16.035Z,1.70
2022-10-11T13:16:21.698Z,1.90
2022-10-11T13:18:27.038Z,2.37
2022-10-11T13:20:32.561Z,1.93
2022-10-11T13:22:39.078Z,1.63
2022-10-11T13:24:42.518Z,1.90
2022-10-11T13:26:47.558Z,2.40
2022-10-11T13:28:50.686Z,1.70
2022-10-11T13:30:57.890Z,2.00
2022-10-11T13:33:02.091Z,1.93
2022-10-11T13:35:15.098Z,1.63
2022-10-11T13:37:21.329Z,1.63
2022-10-11T13:39:31.266Z,2.03
2022-10-11T13:41:38.442Z,1.90
2022-10-11T13:43:41.783Z,1.80
2022-10-11T13:45:44.809Z,1.93
2022-10-11T13:47:48.915Z,2.30
2022-10-11T13:50:04.327Z,1.87
2022-10-11T13:52:22.653Z,1.97
2022-10-11T13:54:25.490Z,2.67
2022-10-11T13:56:30.570Z,1.90
2022-10-11T13:58:38.746Z,1.60
2022-10-11T14:00:52.545Z,2.10
2022-10-11T14:02:59.774Z,1.57
2022-10-11T14:05:03.071Z,1.93
2022-10-11T14:07:05.985Z,1.93
2022-10-11T14:09:18.386Z,1.50
2022-10-11T14:11:34.939Z,1.87
2022-10-11T14:13:39.965Z,2.10
2022-10-11T14:15:42.771Z,1.97
2022-10-11T14:17:46.995Z,1.63
2022-10-11T14:20:11.358Z,1.23
2022-10-11T14:22:16.473Z,1.80
2022-10-11T14:24:22.856Z,1.70
2022-10-11T14:26:27.448Z,1.80
2022-10-11T14:28:30.381Z,1.77
2022-10-11T14:30:33.318Z,1.90
2022-10-11T14:32:37.384Z,1.70
2022-10-11T14:34:40.424Z,2.20
2022-10-11T14:36:43.253Z,1.50
2022-10-11T14:38:46.090Z,2.10
2022-10-11T14:40:50.746Z,1.40
2022-10-11T14:42:53.846Z,1.47
2022-10-11T14:44:56.697Z,1.57
2022-10-11T14:46:59.995Z,1.90
2022-10-11T14:49:03.171Z,1.67
2022-10-11T14:51:07.146Z,2.03
2022-10-11T14:53:11.468Z,1.90
2022-10-11T14:55:14.406Z,2.10
2022-10-11T14:57:18.599Z,1.60
2022-10-11T14:59:23.168Z,1.80
2022-10-11T15:01:26.165Z,1.80
2022-10-11T15:03:28.999Z,1.90
2022-10-11T15:05:34.170Z,1.70
2022-10-11T15:07:37.318Z,2.10
2022-10-11T15:09:40.118Z,1.70
2022-10-11T15:11:42.930Z,1.80
2022-10-11T15:13:47.401Z,1.63
2022-10-11T15:15:50.582Z,1.83
2022-10-11T15:17:55.533Z,1.73
2022-10-11T15:19:58.485Z,1.73
2022-10-11T15:22:02.303Z,1.97
2022-10-11T15:24:05.382Z,2.00
2022-10-11T15:26:08.711Z,1.80
2022-10-11T15:28:20.798Z,1.43
2022-10-11T15:30:26.796Z,1.80
2022-10-11T15:32:29.597Z,1.40
2022-10-11T15:34:32.458Z,1.70
2022-10-11T15:36:35.325Z,1.63
2022-10-11T15:38:38.178Z,1.80
2022-10-11T15:40:41.531Z,2.17
2022-10-11T15:42:44.454Z,1.60
2022-10-11T15:44:47.365Z,1.50
2022-10-11T15:46:51.785Z,1.73
2022-10-11T15:48:54.594Z,1.83
2022-10-11T15:50:58.666Z,1.57
2022-10-11T15:53:02.756Z,1.33
2022-10-11T15:55:06.122Z,1.70
2022-10-11T15:57:08.963Z,1.60
2022-10-11T15:59:12.673Z,2.00
2022-10-11T16:01:17.278Z,2.17
2022-10-11T16:03:23.298Z,1.73
2022-10-11T16:05:28.728Z,1.67
2022-10-11T16:07:31.589Z,2.03
2022-10-11T16:09:34.816Z,1.63
2022-10-11T16:11:37.723Z,1.77
2022-10-11T16:13:40.638Z,1.83
2022-10-11T16:15:44.337Z,1.80
2022-10-11T16:17:47.235Z,1.70
2022-10-11T16:19:51.535Z,2.00
2022-10-11T16:21:54.415Z,1.67
2022-10-11T16:23:57.508Z,1.90
2022-10-11T16:26:02.264Z,2.00
2022-10-11T16:28:07.854Z,1.90
2022-10-11T16:30:12.718Z,2.07
2022-10-11T16:32:15.578Z,2.00
2022-10-11T16:34:18.407Z,1.80
2022-10-11T16:36:35.822Z,2.10
2022-10-11T16:38:38.862Z,1.97
2022-10-11T16:40:43.238Z,2.50
2022-10-11T16:42:46.369Z,3.60
2022-10-11T16:44:49.191Z,3.20
2022-10-11T16:46:52.854Z,4.93
2022-10-11T16:48:56.450Z,5.60
2022-10-11T16:51:06.677Z,4.27
2022-10-11T16:53:10.878Z,3.83
2022-10-11T16:55:13.679Z,3.90
2022-10-11T16:57:18.862Z,4.00
2022-10-11T16:59:21.943Z,3.50
2022-10-11T17:01:24.835Z,3.73
2022-10-11T17:03:27.927Z,4.00
2022-10-11T17:05:33.818Z,3.50
2022-10-11T17:07:36.879Z,3.10
2022-10-11T17:09:44.161Z,3.27
2022-10-11T17:11:47.371Z,3.13
2022-10-11T17:13:51.507Z,3.60
2022-10-11T17:15:54.431Z,3.20
2022-10-11T17:17:57.279Z,3.57
2022-10-11T17:20:02.253Z,3.47
2022-10-11T17:22:05.293Z,2.90
2022-10-11T17:24:08.920Z,2.70
2022-10-11T17:26:17.275Z,2.90
2022-10-11T17:28:20.377Z,2.80
2022-10-11T17:30:23.499Z,2.80
2022-10-11T17:32:26.359Z,3.07
2022-10-11T17:34:29.435Z,3.33
2022-10-11T17:36:34.951Z,3.00
2022-10-11T17:38:37.907Z,2.67
2022-10-11T17:40:40.826Z,2.30
2022-10-11T17:42:45.005Z,2.97
2022-10-11T17:44:50.522Z,2.60
2022-10-11T17:46:53.396Z,2.70
2022-10-11T17:48:56.237Z,2.57
2022-10-11T17:50:59.488Z,3.13
2022-10-11T17:53:02.538Z,2.57
2022-10-11T17:55:06.040Z,3.50
2022-10-11T17:57:08.958Z,4.10
2022-10-11T17:59:18.458Z,5.50
2022-10-11T18:01:24.623Z,4.97
2022-10-11T18:03:27.717Z,4.33
2022-10-11T18:05:30.563Z,4.03
2022-10-11T18:07:33.453Z,3.30
2022-10-11T18:09:36.915Z,3.63
2022-10-11T18:11:39.846Z,4.60
2022-10-11T18:13:46.228Z,10.27
2022-10-11T18:15:53.598Z,6.93
2022-10-11T18:17:57.854Z,11.17
2022-10-11T18:20:00.788Z,15.03
2022-10-11T18:22:07.000Z,12.40
2022-10-11T18:24:14.991Z,9.50
2022-10-11T18:26:20.677Z,7.33
2022-10-11T18:28:24.012Z,4.87
2022-10-11T18:30:27.298Z,6.10
2022-10-11T18:32:31.703Z,6.77
2022-10-11T18:34:40.390Z,6.47
2022-10-11T18:36:44.155Z,6.27
2022-10-11T18:38:49.142Z,7.07
2022-10-11T18:40:54.942Z,7.07
2022-10-11T18:42:58.203Z,6.57
2022-10-11T18:45:04.279Z,5.83
2022-10-11T18:47:07.322Z,5.20
2022-10-11T18:49:11.697Z,5.13
2022-10-11T18:51:18.403Z,5.47
2022-10-11T18:53:21.336Z,5.13
2022-10-11T18:55:24.277Z,4.40
2022-10-11T18:57:27.456Z,3.90
2022-10-11T18:59:30.413Z,3.13
2022-10-11T19:01:35.574Z,2.93
2022-10-11T19:03:39.199Z,3.60
2022-10-11T19:05:43.456Z,3.50
2022-10-11T19:07:46.440Z,4.40
2022-10-11T19:09:49.697Z,3.40
2022-10-11T19:11:54.349Z,3.07
2022-10-11T19:13:58.764Z,3.30
2022-10-11T19:16:07.506Z,3.63
2022-10-11T19:18:13.437Z,3.60
2022-10-11T19:20:17.384Z,3.33
2022-10-11T19:22:21.618Z,37.53
2022-10-11T19:24:26.835Z,18.53
2022-10-11T19:26:33.473Z,13.57
2022-10-11T19:28:36.546Z,9.57
2022-10-11T19:30:39.626Z,14.03
2022-10-11T19:32:42.570Z,20.57
2022-10-11T19:34:45.394Z,12.40
2022-10-11T19:36:50.296Z,15.93
2022-10-11T19:38:56.861Z,18.40
2022-10-11T19:41:01.706Z,12.27
2022-10-11T19:43:04.668Z,10.40
2022-10-11T19:45:08.873Z,9.77
2022-10-11T19:47:11.807Z,18.80
2022-10-11T19:49:17.602Z,20.03
2022-10-11T19:51:22.934Z,17.33
2022-10-11T19:53:25.917Z,13.63
2022-10-11T19:55:30.584Z,19.17
2022-10-11T19:57:33.829Z,14.57
2022-10-11T19:59:36.918Z,26.43
2022-10-11T20:01:40.855Z,24.60
2022-10-11T20:03:44.660Z,23.13
2022-10-11T20:05:47.451Z,17.77
2022-10-11T20:07:50.455Z,15.10
2022-10-11T20:09:53.432Z,14.50
2022-10-11T20:11:58.134Z,13.03
2022-10-11T20:14:01.090Z,12.43
2022-10-11T20:16:06.397Z,11.30
2022-10-11T20:18:09.305Z,10.47
2022-10-11T20:20:12.382Z,10.70
2022-10-11T20:22:15.284Z,10.93
2022-10-11T20:24:18.090Z,9.70
2022-10-11T20:26:22.411Z,8.73
2022-10-11T20:28:27.033Z,8.53
2022-10-11T20:30:29.976Z,7.13
2022-10-11T20:32:32.872Z,5.80
2022-10-11T20:34:39.411Z,5.30
2022-10-11T20:36:46.862Z,6.00
2022-10-11T20:38:52.906Z,5.93
2022-10-11T20:40:55.836Z,6.67
2022-10-11T20:42:58.851Z,6.47
2022-10-11T20:45:03.144Z,5.90
2022-10-11T20:47:06.417Z,6.23
2022-10-11T20:49:11.485Z,6.57
2022-10-11T20:51:14.403Z,6.37
2022-10-11T20:53:17.243Z,5.90
2022-10-11T20:55:20.130Z,6.10
2022-10-11T20:57:22.966Z,4.77
2022-10-11T20:59:25.978Z,4.77
2022-10-11T21:01:32.733Z,4.97
2022-10-11T21:03:36.168Z,4.47
2022-10-11T21:05:39.196Z,3.97
2022-10-11T21:07:42.038Z,4.20
2022-10-11T21:09:45.501Z,3.60
2022-10-11T21:11:51.460Z,3.53
2022-10-11T21:13:56.205Z,3.67
2022-10-11T21:16:04.585Z,3.40
2022-10-11T21:18:09.114Z,2.80
2022-10-11T21:20:12.286Z,3.23
2022-10-11T21:22:15.186Z,3.67
2022-10-11T21:24:18.157Z,3.17
2022-10-11T21:26:22.075Z,2.87
2022-10-11T21:28:24.963Z,3.00
2022-10-11T21:30:27.836Z,3.00
2022-10-11T21:32:30.788Z,3.43
2022-10-11T21:34:34.994Z,2.83
2022-10-11T21:36:37.886Z,3.30
2022-10-11T21:38:41.172Z,3.20
2022-10-11T21:40:47.265Z,3.13
2022-10-11T21:42:50.143Z,3.00
2022-10-11T21:44:53.079Z,3.93
2022-10-11T21:47:07.168Z,5.67
2022-10-11T21:49:10.418Z,6.37
2022-10-11T21:51:22.897Z,9.97
2022-10-11T21:53:25.730Z,5.43
2022-10-11T21:55:29.386Z,4.83
2022-10-11T21:57:32.289Z,3.77
2022-10-11T21:59:35.266Z,4.17
2022-10-11T22:01:38.709Z,3.30
2022-10-11T22:03:41.805Z,3.20
2022-10-11T22:05:45.330Z,2.93
2022-10-11T22:07:49.860Z,2.43
2022-10-11T22:09:52.665Z,2.87
2022-10-11T22:11:55.435Z,2.73
2022-10-11T22:13:58.482Z,2.77
2022-10-11T22:16:03.428Z,3.00
2022-10-11T22:18:06.418Z,2.63
2022-10-11T22:20:10.001Z,2.63
2022-10-11T22:22:12.841Z,3.30
2022-10-11T22:24:17.530Z,3.10
2022-10-11T22:26:22.110Z,3.13
2022-10-11T22:28:25.019Z,2.90
2022-10-11T22:30:27.905Z,2.53
2022-10-11T22:32:30.754Z,30.27
2022-10-11T22:34:34.069Z,17.00
2022-10-11T22:36:36.919Z,5.90
2022-10-11T22:38:41.758Z,4.53
2022-10-11T22:40:45.908Z,2.97
2022-10-11T22:42:49.041Z,2.90
2022-10-11T22:44:51.830Z,3.10
2022-10-11T22:46:54.654Z,4.57
2022-10-11T22:48:57.511Z,3.33
2022-10-11T22:51:00.867Z,3.33
2022-10-11T22:53:03.862Z,3.30
2022-10-11T22:55:07.556Z,2.80
2022-10-11T22:57:11.714Z,2.50
2022-10-11T22:59:14.535Z,19.10
2022-10-11T23:01:17.459Z,4.87
2022-10-11T23:03:20.650Z,3.47
2022-10-11T23:05:23.529Z,3.30
2022-10-11T23:07:26.367Z,3.47
2022-10-11T23:09:30.970Z,3.50
2022-10-11T23:11:33.783Z,3.37
2022-10-11T23:13:38.038Z,3.30
2022-10-11T23:15:41.230Z,3.37
2022-10-11T23:17:44.087Z,3.37
2022-10-11T23:19:46.914Z,3.07
2022-10-11T23:21:49.753Z,3.47
2022-10-11T23:23:53.765Z,3.20
2022-10-11T23:26:05.265Z,3.37
2022-10-11T23:28:08.051Z,3.10
2022-10-11T23:30:14.410Z,3.03
2022-10-11T23:32:17.350Z,3.40
2022-10-11T23:34:20.138Z,3.57
2022-10-11T23:36:24.592Z,3.27
2022-10-11T23:38:27.495Z,3.23
2022-10-11T23:40:30.299Z,3.20
2022-10-11T23:42:34.133Z,3.23
2022-10-11T23:44:36.923Z,3.13
2022-10-11T23:46:41.140Z,3.63
2022-10-11T23:48:43.997Z,3.73
2022-10-11T23:50:47.140Z,3.97
2022-10-11T23:52:49.943Z,4.00
2022-10-11T23:54:52.771Z,3.60
2022-10-11T23:56:55.584Z,3.90
2022-10-11T23:58:58.549Z,3.20
